createdAt,value
2018-12-16T00:00:38.929Z,1.50
2018-12-16T00:03:07.464Z,1.50
2018-12-16T00:05:35.980Z,1.50
2018-12-16T00:08:04.650Z,1.50
2018-12-16T00:10:33.183Z,1.50
2018-12-16T00:13:01.694Z,1.40
2018-12-16T00:15:30.236Z,1.40
2018-12-16T00:17:58.726Z,1.40
2018-12-16T00:20:27.225Z,1.40
2018-12-16T00:22:55.719Z,1.30
2018-12-16T00:25:24.260Z,1.30
2018-12-16T00:27:52.776Z,1.30
2018-12-16T00:30:21.296Z,1.30
2018-12-16T00:32:49.875Z,1.30
2018-12-16T00:35:18.395Z,1.40
2018-12-16T00:37:46.984Z,1.40
2018-12-16T00:40:15.539Z,1.40
2018-12-16T00:42:44.087Z,1.30
2018-12-16T00:45:12.665Z,1.40
2018-12-16T00:47:41.246Z,1.40
2018-12-16T00:50:10.032Z,1.40
2018-12-16T00:52:39.114Z,1.40
2018-12-16T00:55:08.656Z,1.50
2018-12-16T00:57:37.175Z,1.40
2018-12-16T01:00:10.934Z,1.40
2018-12-16T01:02:41.534Z,1.40
2018-12-16T01:05:10.704Z,1.50
2018-12-16T01:07:39.387Z,1.50
2018-12-16T01:10:09.207Z,1.50
2018-12-16T01:12:37.713Z,1.50
2018-12-16T01:15:06.875Z,1.60
2018-12-16T01:17:35.405Z,1.60
2018-12-16T01:20:05.062Z,1.60
2018-12-16T01:22:33.647Z,1.60
2018-12-16T01:25:02.142Z,1.60
2018-12-16T01:27:30.709Z,1.60
2018-12-16T01:29:59.773Z,1.60
2018-12-16T01:32:28.287Z,1.60
2018-12-16T01:34:56.878Z,1.60
2018-12-16T01:37:25.477Z,1.50
2018-12-16T01:39:54.018Z,1.50
2018-12-16T01:42:22.527Z,1.50
2018-12-16T01:44:51.087Z,1.50
2018-12-16T01:47:19.719Z,1.50
2018-12-16T01:49:48.399Z,1.50
2018-12-16T01:52:16.889Z,1.50
2018-12-16T01:54:45.444Z,1.40
2018-12-16T01:57:14.107Z,1.50
2018-12-16T01:59:42.873Z,1.50
2018-12-16T02:02:11.431Z,1.50
2018-12-16T02:04:39.954Z,1.50
2018-12-16T02:07:08.532Z,1.50
2018-12-16T02:09:37.209Z,1.50
2018-12-16T02:12:06.452Z,1.50
2018-12-16T02:14:35.008Z,1.50
2018-12-16T02:17:03.578Z,1.50
2018-12-16T02:19:32.143Z,1.50
2018-12-16T02:22:00.741Z,1.60
2018-12-16T02:24:29.274Z,1.60
2018-12-16T02:26:57.824Z,1.60
2018-12-16T02:29:26.538Z,1.60
2018-12-16T02:31:55.088Z,1.60
2018-12-16T02:34:23.711Z,1.60
2018-12-16T02:36:52.303Z,1.60
2018-12-16T02:39:20.967Z,1.70
2018-12-16T02:41:49.509Z,1.70
2018-12-16T02:44:18.176Z,1.60
2018-12-16T02:46:46.739Z,1.70
2018-12-16T02:49:15.242Z,1.60
2018-12-16T02:51:43.774Z,1.60
2018-12-16T02:54:12.394Z,1.60
2018-12-16T02:56:40.943Z,1.60
2018-12-16T02:59:09.483Z,1.50
2018-12-16T03:01:40.084Z,1.50
2018-12-16T03:04:08.662Z,1.50
2018-12-16T03:06:37.363Z,1.50
2018-12-16T03:09:06.268Z,1.50
2018-12-16T03:11:34.843Z,1.50
2018-12-16T03:14:03.423Z,1.50
2018-12-16T03:16:32.060Z,1.50
2018-12-16T03:19:00.598Z,1.50
2018-12-16T03:21:29.379Z,1.50
2018-12-16T03:23:58.022Z,1.50
2018-12-16T03:26:27.009Z,1.60
2018-12-16T03:28:55.588Z,1.60
2018-12-16T03:31:24.138Z,1.60
2018-12-16T03:33:52.763Z,1.70
2018-12-16T03:36:21.561Z,1.70
2018-12-16T03:38:50.310Z,1.70
2018-12-16T03:41:19.033Z,1.70
2018-12-16T03:43:47.599Z,1.70
2018-12-16T03:46:16.228Z,1.60
2018-12-16T03:48:44.774Z,1.60
2018-12-16T03:51:13.432Z,1.50
2018-12-16T03:53:42.139Z,1.50
2018-12-16T03:56:10.715Z,1.50
2018-12-16T03:58:49.325Z,1.50
2018-12-16T04:01:18.497Z,1.50
2018-12-16T04:03:47.093Z,1.40
2018-12-16T04:06:15.675Z,1.50
2018-12-16T04:08:44.379Z,1.50
2018-12-16T04:11:12.883Z,1.50
2018-12-16T04:13:41.640Z,1.50
2018-12-16T04:16:10.196Z,1.40
2018-12-16T04:18:38.734Z,1.40
2018-12-16T04:21:07.484Z,1.40
2018-12-16T04:23:36.090Z,1.40
2018-12-16T04:26:04.776Z,1.30
2018-12-16T04:28:33.561Z,1.30
2018-12-16T04:31:02.164Z,1.20
2018-12-16T04:33:30.939Z,1.30
2018-12-16T04:35:59.556Z,1.20
2018-12-16T04:38:28.124Z,1.30
2018-12-16T04:40:56.743Z,1.20
2018-12-16T04:43:25.561Z,1.20
2018-12-16T04:45:54.295Z,1.20
2018-12-16T04:48:22.867Z,1.30
2018-12-16T04:50:51.432Z,1.30
2018-12-16T04:53:20.018Z,1.30
2018-12-16T04:55:48.557Z,1.30
2018-12-16T04:58:17.127Z,1.20
2018-12-16T05:00:45.688Z,1.20
2018-12-16T05:03:14.270Z,1.10
2018-12-16T05:05:42.944Z,1.00
2018-12-16T05:08:11.562Z,1.00
2018-12-16T05:10:41.561Z,1.00
2018-12-16T05:13:11.178Z,1.10
2018-12-16T05:15:39.772Z,1.00
2018-12-16T05:18:08.340Z,0.90
2018-12-16T05:20:36.974Z,0.90
2018-12-16T05:23:05.608Z,0.90
2018-12-16T05:25:34.211Z,0.90
2018-12-16T05:28:02.740Z,0.90
2018-12-16T05:30:31.284Z,0.90
2018-12-16T05:32:59.958Z,0.90
2018-12-16T05:35:28.495Z,0.90
2018-12-16T05:37:57.038Z,0.90
2018-12-16T05:40:25.605Z,0.90
2018-12-16T05:42:54.137Z,0.90
2018-12-16T05:45:22.741Z,0.80
2018-12-16T05:47:51.320Z,0.90
2018-12-16T05:50:19.907Z,0.90
2018-12-16T05:52:48.484Z,0.90
2018-12-16T05:55:17.085Z,0.80
2018-12-16T05:57:45.807Z,0.90
2018-12-16T06:00:14.418Z,0.90
2018-12-16T06:02:43.007Z,0.80
2018-12-16T06:05:11.640Z,0.80
2018-12-16T06:07:40.233Z,0.90
2018-12-16T06:10:08.963Z,0.90
2018-12-16T06:12:37.639Z,0.80
2018-12-16T06:15:06.534Z,0.80
2018-12-16T06:17:35.367Z,0.90
2018-12-16T06:20:04.347Z,0.90
2018-12-16T06:22:33.000Z,0.90
2018-12-16T06:25:01.825Z,0.90
2018-12-16T06:27:30.464Z,0.90
2018-12-16T06:29:59.500Z,0.90
2018-12-16T06:32:28.146Z,0.90
2018-12-16T06:34:56.741Z,0.90
2018-12-16T06:37:25.316Z,0.90
2018-12-16T06:39:53.831Z,0.90
2018-12-16T06:42:22.436Z,0.90
2018-12-16T06:44:51.039Z,0.90
2018-12-16T06:47:19.846Z,0.90
2018-12-16T06:49:48.705Z,0.80
2018-12-16T06:52:17.330Z,0.90
2018-12-16T06:54:45.851Z,0.90
2018-12-16T06:57:14.379Z,0.80
2018-12-16T06:59:42.992Z,0.90
2018-12-16T07:02:11.548Z,0.90
2018-12-16T07:04:40.348Z,0.90
2018-12-16T07:07:09.150Z,0.90
2018-12-16T07:09:38.321Z,0.90
2018-12-16T07:12:06.903Z,0.90
2018-12-16T07:14:35.915Z,0.90
2018-12-16T07:17:04.667Z,0.90
2018-12-16T07:19:33.654Z,0.90
2018-12-16T07:22:02.457Z,0.90
2018-12-16T07:24:31.396Z,0.90
2018-12-16T07:26:59.952Z,0.90
2018-12-16T07:29:28.615Z,0.90
2018-12-16T07:31:57.271Z,0.90
2018-12-16T07:34:26.180Z,0.90
2018-12-16T07:36:54.854Z,0.90
2018-12-16T07:39:23.891Z,1.00
2018-12-16T07:41:52.632Z,1.00
2018-12-16T07:44:21.370Z,1.10
2018-12-16T07:46:50.037Z,1.00
2018-12-16T07:49:18.723Z,1.00
2018-12-16T07:51:47.254Z,1.10
2018-12-16T07:54:16.246Z,1.10
2018-12-16T07:56:45.195Z,1.00
2018-12-16T07:59:13.853Z,1.10
2018-12-16T08:01:42.509Z,1.10
2018-12-16T08:04:11.047Z,1.10
2018-12-16T08:06:39.635Z,1.10
2018-12-16T08:09:08.188Z,1.20
2018-12-16T08:11:36.870Z,1.20
2018-12-16T08:14:05.450Z,1.20
2018-12-16T08:16:34.107Z,1.20
2018-12-16T08:19:07.017Z,1.20
2018-12-16T08:24:32.151Z,1.20
2018-12-16T08:27:00.762Z,1.20
2018-12-16T08:29:29.702Z,1.10
2018-12-16T08:31:58.285Z,1.20
2018-12-16T08:34:26.994Z,1.20
2018-12-16T08:36:59.401Z,1.20
2018-12-16T08:39:32.965Z,1.20
2018-12-16T08:42:01.877Z,1.20
2018-12-16T08:44:31.153Z,1.20
2018-12-16T08:47:02.852Z,1.30
2018-12-16T08:49:31.676Z,1.30
2018-12-16T08:52:01.423Z,1.30
2018-12-16T08:54:30.513Z,1.30
2018-12-16T08:57:03.149Z,1.40
2018-12-16T08:59:32.892Z,1.30
2018-12-16T09:02:02.310Z,1.30
2018-12-16T09:04:31.569Z,1.30
2018-12-16T09:07:01.853Z,1.40
2018-12-16T09:09:31.530Z,1.30
2018-12-16T09:12:00.143Z,1.40
2018-12-16T09:14:28.658Z,1.40
2018-12-16T09:16:57.205Z,1.40
2018-12-16T09:19:25.794Z,1.40
2018-12-16T09:21:54.373Z,1.40
2018-12-16T09:24:29.720Z,1.40
2018-12-16T09:26:59.386Z,1.40
2018-12-16T09:29:28.054Z,1.40
2018-12-16T09:31:56.605Z,1.40
2018-12-16T09:34:25.355Z,1.50
2018-12-16T09:36:54.347Z,1.50
2018-12-16T09:39:22.990Z,1.50
2018-12-16T09:41:52.968Z,1.50
2018-12-16T09:44:21.694Z,1.50
2018-12-16T09:46:51.308Z,1.60
2018-12-16T09:49:19.898Z,1.60
2018-12-16T09:51:49.653Z,1.60
2018-12-16T09:54:18.522Z,1.70
2018-12-16T09:56:50.492Z,1.60
2018-12-16T09:59:19.034Z,1.60
2018-12-16T10:01:50.742Z,1.60
2018-12-16T10:04:19.338Z,1.60
2018-12-16T10:06:48.071Z,1.70
2018-12-16T10:09:16.844Z,1.70
2018-12-16T10:11:45.445Z,1.70
2018-12-16T10:14:14.043Z,1.80
2018-12-16T10:16:42.674Z,1.80
2018-12-16T10:19:11.306Z,1.70
2018-12-16T10:21:39.940Z,1.80
2018-12-16T10:24:08.977Z,1.80
2018-12-16T10:26:37.599Z,1.80
2018-12-16T10:29:06.295Z,1.80
2018-12-16T10:31:34.960Z,1.80
2018-12-16T10:34:03.553Z,1.70
2018-12-16T10:36:32.313Z,1.60
2018-12-16T10:39:01.911Z,1.50
2018-12-16T10:41:30.803Z,1.60
2018-12-16T10:43:59.469Z,1.60
2018-12-16T10:46:28.043Z,1.60
2018-12-16T10:49:04.570Z,1.50
2018-12-16T10:51:29.370Z,1.50
2018-12-16T10:53:58.167Z,1.60
2018-12-16T10:56:26.700Z,1.50
2018-12-16T10:58:55.388Z,1.50
2018-12-16T11:01:29.412Z,1.50
2018-12-16T11:03:58.640Z,1.60
2018-12-16T11:06:27.377Z,1.60
2018-12-16T11:08:56.278Z,1.70
2018-12-16T11:11:25.169Z,1.70
2018-12-16T11:13:53.751Z,1.70
2018-12-16T11:16:22.420Z,1.70
2018-12-16T11:18:51.019Z,1.70
2018-12-16T11:21:20.037Z,1.70
2018-12-16T11:23:53.742Z,1.70
2018-12-16T11:26:19.847Z,1.70
2018-12-16T11:28:48.682Z,1.70
2018-12-16T11:31:17.448Z,1.70
2018-12-16T11:33:46.076Z,1.70
2018-12-16T11:36:14.787Z,1.80
2018-12-16T11:38:43.375Z,1.80
2018-12-16T11:41:11.998Z,1.70
2018-12-16T11:43:40.804Z,1.70
2018-12-16T11:46:13.725Z,1.70
2018-12-16T11:48:44.012Z,1.70
2018-12-16T11:51:19.925Z,1.70
2018-12-16T11:53:49.196Z,1.70
2018-12-16T11:56:17.849Z,1.70
2018-12-16T11:58:46.432Z,1.80
2018-12-16T12:01:15.031Z,1.80
2018-12-16T12:03:43.681Z,1.80
2018-12-16T12:06:12.258Z,1.90
2018-12-16T12:08:40.884Z,1.80
2018-12-16T12:11:09.812Z,1.80
2018-12-16T12:13:38.395Z,1.90
2018-12-16T12:16:07.003Z,1.90
2018-12-16T12:18:35.584Z,2.00
2018-12-16T12:21:04.188Z,2.00
2018-12-16T12:23:32.751Z,2.00
2018-12-16T12:26:02.153Z,2.00
2018-12-16T12:28:31.069Z,1.90
2018-12-16T12:30:59.935Z,2.00
2018-12-16T12:33:28.623Z,2.00
2018-12-16T12:35:57.211Z,2.00
2018-12-16T12:38:26.024Z,2.00
2018-12-16T12:40:54.615Z,1.90
2018-12-16T12:43:23.220Z,2.00
2018-12-16T12:45:51.889Z,1.90
2018-12-16T12:48:20.430Z,1.80
2018-12-16T12:50:48.983Z,1.80
2018-12-16T12:53:17.615Z,1.80
2018-12-16T12:55:46.218Z,1.90
2018-12-16T12:58:14.888Z,1.90
2018-12-16T13:00:43.474Z,1.90
2018-12-16T13:03:12.081Z,1.90
2018-12-16T13:05:47.319Z,2.00
2018-12-16T13:08:15.939Z,1.90
2018-12-16T13:10:44.700Z,1.90
2018-12-16T13:13:13.382Z,2.00
2018-12-16T13:15:42.063Z,1.90
2018-12-16T13:18:10.763Z,2.00
2018-12-16T13:20:39.410Z,2.00
2018-12-16T13:23:08.008Z,2.00
2018-12-16T13:25:47.659Z,1.90
2018-12-16T13:28:16.322Z,1.90
2018-12-16T13:30:44.980Z,2.00
2018-12-16T13:33:13.608Z,1.90
2018-12-16T13:35:42.310Z,1.90
2018-12-16T13:38:11.348Z,1.90
2018-12-16T13:40:39.929Z,1.90
2018-12-16T13:43:08.552Z,1.90
2018-12-16T13:45:37.126Z,1.90
2018-12-16T13:48:05.739Z,1.90
2018-12-16T13:50:34.500Z,2.00
2018-12-16T13:53:03.059Z,2.00
2018-12-16T13:55:31.793Z,2.00
2018-12-16T13:58:00.437Z,2.00
2018-12-16T14:00:29.018Z,2.00
2018-12-16T14:02:57.599Z,2.00
2018-12-16T14:05:26.185Z,2.10
2018-12-16T14:07:54.776Z,2.10
2018-12-16T14:10:23.485Z,2.10
2018-12-16T14:12:52.059Z,2.10
2018-12-16T14:15:20.665Z,2.10
2018-12-16T14:17:49.242Z,2.10
2018-12-16T14:20:17.769Z,2.10
2018-12-16T14:22:46.403Z,2.10
2018-12-16T14:25:15.084Z,2.10
2018-12-16T14:27:43.650Z,2.00
2018-12-16T14:30:12.882Z,2.00
2018-12-16T14:32:41.630Z,2.10
2018-12-16T14:35:11.251Z,2.10
2018-12-16T14:37:39.942Z,2.10
2018-12-16T14:40:09.996Z,2.00
2018-12-16T14:42:38.899Z,2.10
2018-12-16T14:45:09.380Z,2.10
2018-12-16T14:47:37.955Z,2.10
2018-12-16T14:50:09.159Z,2.00
2018-12-16T14:52:37.746Z,2.00
2018-12-16T14:55:07.633Z,1.90
2018-12-16T14:57:36.290Z,1.90
2018-12-16T15:00:08.176Z,1.80
2018-12-16T15:02:36.856Z,1.90
2018-12-16T15:05:06.176Z,1.90
2018-12-16T15:07:35.014Z,1.90
2018-12-16T15:10:04.500Z,1.90
2018-12-16T15:12:33.091Z,2.00
2018-12-16T15:15:01.972Z,2.00
2018-12-16T15:17:30.573Z,2.00
2018-12-16T15:19:59.149Z,1.90
2018-12-16T15:22:27.767Z,1.90
2018-12-16T15:24:56.308Z,1.90
2018-12-16T15:27:25.006Z,1.90
2018-12-16T15:29:53.710Z,1.80
2018-12-16T15:32:22.409Z,1.80
2018-12-16T15:34:50.986Z,1.80
2018-12-16T15:37:19.539Z,1.90
2018-12-16T15:39:48.128Z,1.90
2018-12-16T15:42:16.732Z,1.90
2018-12-16T15:44:45.349Z,1.90
2018-12-16T15:47:13.975Z,1.90
2018-12-16T15:49:42.573Z,1.90
2018-12-16T15:52:11.133Z,1.90
2018-12-16T15:54:39.651Z,1.80
2018-12-16T15:57:09.311Z,1.80
2018-12-16T15:59:37.853Z,1.80
2018-12-16T16:02:06.413Z,1.80
2018-12-16T16:04:35.598Z,1.90
2018-12-16T16:07:04.230Z,1.90
2018-12-16T16:09:32.871Z,1.80
2018-12-16T16:12:01.502Z,1.80
2018-12-16T16:14:30.072Z,1.80
2018-12-16T16:16:58.658Z,1.80
2018-12-16T16:19:27.336Z,1.90
2018-12-16T16:21:55.927Z,1.90
2018-12-16T16:24:25.051Z,1.90
2018-12-16T16:26:53.665Z,1.90
2018-12-16T16:29:22.260Z,1.90
2018-12-16T16:31:50.895Z,1.90
2018-12-16T16:34:19.489Z,1.90
2018-12-16T16:36:48.042Z,2.00
2018-12-16T16:39:16.596Z,2.00
2018-12-16T16:41:45.120Z,2.00
2018-12-16T16:44:14.404Z,2.00
2018-12-16T16:46:43.149Z,2.10
2018-12-16T16:49:11.687Z,2.10
2018-12-16T16:51:40.461Z,2.20
2018-12-16T16:54:08.999Z,2.20
2018-12-16T16:56:37.644Z,2.30
2018-12-16T16:59:06.235Z,2.30
2018-12-16T17:01:35.002Z,2.30
2018-12-16T17:04:03.567Z,2.30
2018-12-16T17:06:32.177Z,2.40
2018-12-16T17:09:00.760Z,2.40
2018-12-16T17:11:29.541Z,2.40
2018-12-16T17:13:58.565Z,2.30
2018-12-16T17:16:27.325Z,2.30
2018-12-16T17:18:57.526Z,2.30
2018-12-16T17:21:26.537Z,2.40
2018-12-16T17:23:55.202Z,2.40
2018-12-16T17:26:30.099Z,2.40
2018-12-16T17:28:55.036Z,2.40
2018-12-16T17:31:23.793Z,2.40
2018-12-16T17:33:52.392Z,2.40
2018-12-16T17:36:20.997Z,2.40
2018-12-16T17:38:49.667Z,2.40
2018-12-16T17:41:18.440Z,2.50
2018-12-16T17:43:47.006Z,2.50
2018-12-16T17:46:15.654Z,2.50
2018-12-16T17:48:45.286Z,2.50
2018-12-16T17:51:13.852Z,2.50
2018-12-16T17:53:42.583Z,2.50
2018-12-16T17:56:11.276Z,2.50
2018-12-16T17:58:39.886Z,2.50
2018-12-16T18:01:08.573Z,2.50
2018-12-16T18:03:37.499Z,2.60
2018-12-16T18:06:06.287Z,2.60
2018-12-16T18:08:35.624Z,2.60
2018-12-16T18:11:04.263Z,2.60
2018-12-16T18:13:33.324Z,2.60
2018-12-16T18:16:02.007Z,2.60
2018-12-16T18:18:30.581Z,2.60
2018-12-16T18:20:59.179Z,2.60
2018-12-16T18:23:29.787Z,2.60
2018-12-16T18:25:58.457Z,2.60
2018-12-16T18:28:27.010Z,2.60
2018-12-16T18:30:55.679Z,2.60
2018-12-16T18:33:24.439Z,2.60
2018-12-16T18:35:53.112Z,2.50
2018-12-16T18:38:21.827Z,2.60
2018-12-16T18:40:50.407Z,2.50
2018-12-16T18:43:19.087Z,2.50
2018-12-16T18:45:47.790Z,2.50
2018-12-16T18:48:16.386Z,2.60
2018-12-16T18:50:45.008Z,2.60
2018-12-16T18:53:13.764Z,2.60
2018-12-16T18:55:42.415Z,2.60
2018-12-16T18:58:11.053Z,2.60
2018-12-16T19:00:39.912Z,2.60
2018-12-16T19:03:08.538Z,2.60
2018-12-16T19:05:37.503Z,2.60
2018-12-16T19:08:06.067Z,2.60
2018-12-16T19:10:35.087Z,2.60
2018-12-16T19:13:03.750Z,2.70
2018-12-16T19:15:32.412Z,2.70
2018-12-16T19:18:00.996Z,2.70
2018-12-16T19:20:29.910Z,2.80
2018-12-16T19:22:58.599Z,2.70
2018-12-16T19:25:27.224Z,2.70
2018-12-16T19:27:56.023Z,2.70
2018-12-16T19:30:24.748Z,2.80
2018-12-16T19:32:53.639Z,2.70
2018-12-16T19:35:22.432Z,2.80
2018-12-16T19:37:51.433Z,2.80
2018-12-16T19:40:20.079Z,2.80
2018-12-16T19:42:48.743Z,2.80
2018-12-16T19:45:17.461Z,2.90
2018-12-16T19:47:49.582Z,2.90
2018-12-16T19:50:16.783Z,3.00
2018-12-16T19:52:45.490Z,3.00
2018-12-16T19:55:14.800Z,3.00
2018-12-16T19:57:43.464Z,3.00
2018-12-16T20:00:12.102Z,3.00
2018-12-16T20:02:40.724Z,3.00
2018-12-16T20:05:13.953Z,2.90
2018-12-16T20:07:42.703Z,2.90
2018-12-16T20:10:11.292Z,2.90
2018-12-16T20:12:40.326Z,2.90
2018-12-16T20:15:09.086Z,2.90
2018-12-16T20:17:37.838Z,2.90
2018-12-16T20:20:07.114Z,2.90
2018-12-16T20:22:35.687Z,2.90
2018-12-16T20:25:04.631Z,2.90
2018-12-16T20:27:33.433Z,2.90
2018-12-16T20:30:02.281Z,3.00
2018-12-16T20:32:31.396Z,2.90
2018-12-16T20:35:00.263Z,2.90
2018-12-16T20:37:29.232Z,2.90
2018-12-16T20:39:57.992Z,2.90
2018-12-16T20:42:26.939Z,2.90
2018-12-16T20:44:55.611Z,2.80
2018-12-16T20:47:24.635Z,2.90
2018-12-16T20:49:53.284Z,2.80
2018-12-16T20:52:21.873Z,2.80
2018-12-16T20:54:50.539Z,2.90
2018-12-16T20:57:19.193Z,2.90
2018-12-16T20:59:48.427Z,2.90
2018-12-16T21:02:17.362Z,2.80
2018-12-16T21:04:46.002Z,2.80
2018-12-16T21:07:14.633Z,2.80
2018-12-16T21:09:43.340Z,2.80
2018-12-16T21:12:17.504Z,2.80
2018-12-16T21:14:51.706Z,2.70
2018-12-16T21:17:26.086Z,2.70
2018-12-16T21:19:54.762Z,2.80
2018-12-16T21:22:23.379Z,2.80
2018-12-16T21:24:53.002Z,2.90
2018-12-16T21:27:25.950Z,2.90
2018-12-16T21:29:52.671Z,2.90
2018-12-16T21:32:21.353Z,2.80
2018-12-16T21:34:49.956Z,2.80
2018-12-16T21:37:18.597Z,2.90
2018-12-16T21:39:47.376Z,2.90
2018-12-16T21:42:15.927Z,2.90
2018-12-16T21:44:44.532Z,2.90
2018-12-16T21:47:13.143Z,2.90
2018-12-16T21:49:41.726Z,2.90
2018-12-16T21:52:10.491Z,2.90
2018-12-16T21:54:39.080Z,2.80
2018-12-16T21:57:07.656Z,2.80
2018-12-16T21:59:36.548Z,2.80
2018-12-16T22:02:05.146Z,2.80
2018-12-16T22:04:34.331Z,2.80
2018-12-16T22:07:03.603Z,2.90
2018-12-16T22:09:32.162Z,2.90
2018-12-16T22:12:00.737Z,2.90
2018-12-16T22:14:29.342Z,2.90
2018-12-16T22:16:58.007Z,2.90
2018-12-16T22:19:26.548Z,2.90
2018-12-16T22:21:55.249Z,2.90
2018-12-16T22:24:24.176Z,2.90
2018-12-16T22:26:52.949Z,2.90
2018-12-16T22:29:21.609Z,2.90
2018-12-16T22:31:50.237Z,2.90
2018-12-16T22:34:18.917Z,3.00
2018-12-16T22:36:47.679Z,3.00
2018-12-16T22:39:16.363Z,3.00
2018-12-16T22:41:45.035Z,3.00
2018-12-16T22:44:13.785Z,3.00
2018-12-16T22:46:42.525Z,2.90
2018-12-16T22:49:11.211Z,2.90
2018-12-16T22:51:40.347Z,2.90
2018-12-16T22:54:09.072Z,2.90
2018-12-16T22:56:37.928Z,2.80
2018-12-16T22:59:06.549Z,2.80
2018-12-16T23:01:35.147Z,2.80
2018-12-16T23:04:04.262Z,2.90
2018-12-16T23:06:38.999Z,2.80
2018-12-16T23:09:08.386Z,2.90
2018-12-16T23:11:41.672Z,2.90
2018-12-16T23:14:13.763Z,3.00
2018-12-16T23:16:44.031Z,3.00
2018-12-16T23:19:14.363Z,3.00
2018-12-16T23:21:44.851Z,3.10
2018-12-16T23:24:13.583Z,3.10
2018-12-16T23:26:42.374Z,3.10
2018-12-16T23:29:11.053Z,3.20
2018-12-16T23:31:39.839Z,3.10
2018-12-16T23:34:08.505Z,3.10
2018-12-16T23:36:37.183Z,3.10
2018-12-16T23:39:06.559Z,3.20
2018-12-16T23:41:49.840Z,3.10
2018-12-16T23:44:18.731Z,3.10
2018-12-16T23:47:08.733Z,3.10
2018-12-16T23:49:37.512Z,3.10
2018-12-16T23:52:06.353Z,3.10
2018-12-16T23:54:35.035Z,3.10
2018-12-16T23:57:04.693Z,3.10
2018-12-16T23:59:34.606Z,3.10
